Time;durP1;ratioP1;P1;durP2;ratioP2;P2;SDS_P1;SDS_P2;PMS_P1;PMS_P2;Temp;Humidity;BMP_temperature;BMP_pressure;BME280_temperature;BME280_humidity;BME280_pressure;Samples;Min_cycle;Max_cycle;Signal;HPM_P1;HPM_P2
2021/07/31 00:02:54;;;;;;;6.63;1.90;;;17.10;99.90;;;;;;20822548;28;20334;-50
2021/07/31 00:12:55;;;;;;;2.83;1.17;;;17.10;99.90;;;;;;20798377;28;20076;-49
2021/07/31 00:22:56;;;;;;;3.17;1.35;;;17.10;99.90;;;;;;20820755;28;20073;-50
2021/07/31 00:32:57;;;;;;;6.35;1.33;;;16.90;99.90;;;;;;20815086;28;20045;-50
2021/07/31 00:42:58;;;;;;;3.08;1.00;;;16.80;99.90;;;;;;20829068;28;20131;-50
2021/07/31 00:53:00;;;;;;;8.32;2.10;;;16.80;99.90;;;;;;20828124;28;20118;-49
2021/07/31 01:03:01;;;;;;;3.58;1.33;;;16.80;99.90;;;;;;20835120;28;20061;-50
2021/07/31 01:13:04;;;;;;;4.88;1.75;;;16.80;99.90;;;;;;20818381;28;20120;-50
2021/07/31 01:23:05;;;;;;;4.95;1.70;;;16.40;99.90;;;;;;20820982;28;20033;-52
2021/07/31 01:33:07;;;;;;;6.57;1.45;;;16.00;99.90;;;;;;20824346;28;20048;-51
2021/07/31 01:43:09;;;;;;;4.45;0.95;;;15.90;99.90;;;;;;20827471;28;20041;-52
2021/07/31 01:53:11;;;;;;;1.48;0.98;;;15.80;99.90;;;;;;20819944;28;20110;-50
2021/07/31 02:03:12;;;;;;;4.13;1.17;;;15.70;99.90;;;;;;20827352;28;20057;-50
2021/07/31 02:13:13;;;;;;;2.55;0.93;;;15.70;99.90;;;;;;20826310;28;20223;-50
2021/07/31 02:23:14;;;;;;;2.92;1.52;;;15.70;99.90;;;;;;20809220;28;20072;-50
2021/07/31 02:33:15;;;;;;;5.35;1.02;;;15.80;99.90;;;;;;20821971;28;20047;-50
2021/07/31 02:43:16;;;;;;;2.20;0.95;;;15.80;99.90;;;;;;20822206;28;20181;-50
2021/07/31 02:53:17;;;;;;;3.03;1.10;;;15.70;99.90;;;;;;20821447;28;20049;-50
2021/07/31 03:03:19;;;;;;;3.92;1.00;;;15.80;99.90;;;;;;20824534;28;20049;-51
2021/07/31 03:13:20;;;;;;;6.22;1.85;;;15.80;99.90;;;;;;20817142;28;20205;-50
2021/07/31 03:23:24;;;;;;;4.65;1.73;;;15.80;99.90;;;;;;20803148;28;20049;-50
2021/07/31 03:33:25;;;;;;;13.02;1.80;;;15.80;99.90;;;;;;20816588;28;20185;-50
2021/07/31 03:43:26;;;;;;;5.93;1.63;;;15.70;99.90;;;;;;20822796;28;20033;-50
2021/07/31 03:53:30;;;;;;;6.20;1.58;;;15.60;99.90;;;;;;20782599;28;20045;-50
2021/07/31 04:03:32;;;;;;;3.70;1.55;;;15.50;99.90;;;;;;20797354;28;20056;-50
2021/07/31 04:13:33;;;;;;;4.82;1.45;;;15.50;99.90;;;;;;20815529;28;20270;-50
2021/07/31 04:23:35;;;;;;;4.93;1.45;;;15.70;99.90;;;;;;20835901;28;20037;-50
2021/07/31 04:33:37;;;;;;;3.95;1.30;;;15.70;99.90;;;;;;20830596;28;20177;-50
2021/07/31 04:43:38;;;;;;;2.97;1.10;;;15.60;99.90;;;;;;20818881;28;20045;-50
2021/07/31 04:53:39;;;;;;;3.50;1.25;;;15.60;99.90;;;;;;20828381;28;20053;-51
2021/07/31 05:03:41;;;;;;;3.35;1.05;;;15.60;99.90;;;;;;20813009;28;20051;-50
2021/07/31 05:13:42;;;;;;;2.88;1.00;;;15.50;99.90;;;;;;20812979;28;20056;-51
2021/07/31 05:23:43;;;;;;;2.28;0.85;;;15.30;99.90;;;;;;20818467;28;20041;-50
2021/07/31 05:33:44;;;;;;;3.33;1.17;;;15.30;99.90;;;;;;20818999;28;20396;-51
2021/07/31 05:43:46;;;;;;;2.65;1.40;;;15.40;99.90;;;;;;20829735;28;20065;-50
2021/07/31 05:53:47;;;;;;;2.72;1.48;;;15.50;99.90;;;;;;20825393;28;20072;-50
2021/07/31 06:03:48;;;;;;;3.20;1.23;;;15.60;99.90;;;;;;20829118;28;20035;-50
2021/07/31 06:13:49;;;;;;;4.20;1.63;;;15.80;99.90;;;;;;20798227;28;20037;-50
2021/07/31 06:23:50;;;;;;;2.05;0.95;;;15.80;99.90;;;;;;20820843;28;20047;-51
2021/07/31 06:33:52;;;;;;;6.10;2.45;;;15.70;99.90;;;;;;20825608;28;20041;-51
2021/07/31 06:43:54;;;;;;;5.53;1.13;;;15.80;99.90;;;;;;20825991;28;20037;-50
2021/07/31 06:53:59;;;;;;;3.05;1.35;;;15.70;99.90;;;;;;20815432;28;20048;-50
2021/07/31 07:04:00;;;;;;;1.88;0.90;;;15.90;99.90;;;;;;20820803;28;20053;-50
2021/07/31 07:14:01;;;;;;;4.45;0.90;;;16.00;99.90;;;;;;20801771;28;20211;-51
2021/07/31 07:24:03;;;;;;;2.33;1.35;;;16.20;99.90;;;;;;20811031;28;20072;-51
2021/07/31 07:34:04;;;;;;;4.55;0.95;;;16.50;99.90;;;;;;20813180;28;20029;-51
2021/07/31 07:44:05;;;;;;;1.15;0.60;;;16.40;99.90;;;;;;20815194;28;20045;-51
2021/07/31 07:54:06;;;;;;;1.83;0.70;;;16.50;99.90;;;;;;20819437;28;20292;-51
2021/07/31 08:04:07;;;;;;;3.72;0.70;;;16.70;99.90;;;;;;20813730;28;20049;-51
2021/07/31 08:14:09;;;;;;;4.00;1.58;;;16.50;99.90;;;;;;20833260;28;20051;-50
2021/07/31 08:24:10;;;;;;;2.00;0.75;;;16.40;99.90;;;;;;20834822;28;20043;-51
2021/07/31 08:34:12;;;;;;;6.93;0.93;;;16.40;99.90;;;;;;20809093;28;20091;-51
2021/07/31 08:44:14;;;;;;;1.45;0.68;;;16.40;99.90;;;;;;20823465;28;20095;-51
2021/07/31 08:54:15;;;;;;;1.80;0.70;;;16.60;99.90;;;;;;20829170;28;20052;-52
2021/07/31 09:04:16;;;;;;;1.90;0.82;;;16.50;99.90;;;;;;20817654;28;20208;-51
2021/07/31 09:14:19;;;;;;;1.33;0.55;;;16.30;99.90;;;;;;20826017;28;20037;-52
2021/07/31 09:24:22;;;;;;;2.22;1.30;;;16.90;99.90;;;;;;20845084;28;20048;-51
2021/07/31 09:34:36;;;;;;;3.85;1.13;;;17.30;99.90;;;;;;20865440;28;20064;-52
2021/07/31 09:44:46;;;;;;;2.80;1.40;;;17.00;99.90;;;;;;20920474;22;20038;-82
2021/07/31 09:54:48;;;;;;;3.72;1.08;;;17.60;99.90;;;;;;21086373;22;20050;-81
2021/07/31 10:04:52;;;;;;;1.92;0.90;;;17.90;99.90;;;;;;20797457;28;20038;-81
2021/07/31 10:14:54;;;;;;;1.23;0.50;;;17.90;99.90;;;;;;20789619;28;20044;-81
2021/07/31 10:25:05;;;;;;;1.90;0.55;;;17.90;99.90;;;;;;20787516;28;20397;-82
2021/07/31 10:35:34;;;;;;;1.30;0.52;;;17.60;99.90;;;;;;20789187;28;20056;-82
2021/07/31 10:45:35;;;;;;;0.93;0.52;;;18.00;99.90;;;;;;20791537;28;20408;-83
2021/07/31 10:55:37;;;;;;;3.22;0.70;;;18.20;99.90;;;;;;20789467;28;20608;-82
2021/07/31 11:06:00;;;;;;;3.45;0.75;;;18.50;99.90;;;;;;20785163;28;20045;-86
2021/07/31 11:16:07;;;;;;;1.90;0.55;;;19.00;99.90;;;;;;20810136;28;20604;-81
2021/07/31 11:26:08;;;;;;;2.35;0.75;;;18.90;99.90;;;;;;20780849;28;20595;-84
2021/07/31 11:36:15;;;;;;;1.70;0.57;;;18.00;99.90;;;;;;20760818;28;20509;-82
2021/07/31 11:46:39;;;;;;;3.13;1.23;;;17.20;99.90;;;;;;20773590;28;20042;-81
2021/07/31 11:56:42;;;;;;;4.30;1.80;;;17.40;99.90;;;;;;20774253;28;20143;-82
2021/07/31 12:06:45;;;;;;;3.22;1.33;;;18.30;99.90;;;;;;20795226;28;20066;-83
2021/07/31 12:16:46;;;;;;;2.67;0.95;;;19.40;99.90;;;;;;20777404;28;20092;-83
2021/07/31 12:26:54;;;;;;;1.70;0.70;;;19.80;99.90;;;;;;20743402;28;20052;-83
2021/07/31 12:36:56;;;;;;;;;;;19.40;99.90;;;;;;20771674;28;20049;-83
2021/07/31 12:47:00;;;;;;;3.63;1.50;;;18.90;99.90;;;;;;20768296;28;19921;-83
2021/07/31 12:57:01;;;;;;;4.05;1.42;;;19.50;99.90;;;;;;20726530;28;20128;-85
2021/07/31 13:07:03;;;;;;;2.10;1.00;;;20.60;99.90;;;;;;20725875;28;20075;-84
2021/07/31 13:17:04;;;;;;;2.35;0.70;;;21.10;99.90;;;;;;20774403;28;20045;-83
2021/07/31 13:27:05;;;;;;;2.53;1.25;;;21.00;99.90;;;;;;20684447;28;20137;-83
2021/07/31 13:37:08;;;;;;;2.30;0.77;;;21.60;99.90;;;;;;20662267;28;20053;-82
2021/07/31 13:47:10;;;;;;;2.15;1.17;;;21.20;99.90;;;;;;20698445;28;20060;-83
2021/07/31 13:57:12;;;;;;;2.75;1.55;;;19.90;99.90;;;;;;20669704;28;20054;-82
2021/07/31 14:07:13;;;;;;;6.65;1.63;;;19.20;99.90;;;;;;20723179;28;20100;-84
2021/07/31 14:17:15;;;;;;;4.32;1.38;;;19.00;99.90;;;;;;20689623;28;20054;-82
2021/07/31 14:27:16;;;;;;;3.55;1.20;;;19.20;99.90;;;;;;20706833;28;20062;-82
2021/07/31 14:37:17;;;;;;;2.47;1.33;;;19.50;99.90;;;;;;20725217;28;21681;-81
2021/07/31 14:47:18;;;;;;;2.55;0.90;;;20.10;99.90;;;;;;20711973;28;20054;-82
2021/07/31 14:57:19;;;;;;;2.33;1.33;;;20.60;99.90;;;;;;20725934;28;20045;-81
2021/07/31 15:07:20;;;;;;;5.85;1.88;;;20.30;99.90;;;;;;20702564;28;20060;-81
2021/07/31 15:17:21;;;;;;;2.40;0.73;;;20.50;99.90;;;;;;20708699;28;20037;-81
2021/07/31 15:27:23;;;;;;;1.70;0.80;;;20.50;99.90;;;;;;20686353;28;20053;-81
2021/07/31 15:37:24;;;;;;;3.97;1.33;;;20.40;99.90;;;;;;20702022;28;20049;-83
2021/07/31 15:47:25;;;;;;;2.47;1.00;;;20.70;99.90;;;;;;20678555;28;20053;-81
2021/07/31 15:57:26;;;;;;;5.55;1.08;;;20.50;99.90;;;;;;20717421;28;20159;-81
2021/07/31 16:07:27;;;;;;;4.57;1.27;;;20.30;99.90;;;;;;20669704;28;20509;-81
2021/07/31 16:17:29;;;;;;;2.05;0.90;;;20.50;99.90;;;;;;20723848;28;20136;-81
2021/07/31 16:27:32;;;;;;;2.33;1.13;;;20.50;99.90;;;;;;20733674;28;20061;-83
2021/07/31 16:37:33;;;;;;;5.00;0.93;;;20.30;99.90;;;;;;20723392;28;20547;-84
2021/07/31 16:47:37;;;;;;;2.03;0.75;;;20.20;99.90;;;;;;20743252;28;20054;-84
2021/07/31 16:57:38;;;;;;;2.10;0.85;;;19.90;99.90;;;;;;20732352;28;20046;-84
2021/07/31 17:07:39;;;;;;;1.30;0.50;;;19.90;99.90;;;;;;20741282;28;20128;-84
2021/07/31 17:17:41;;;;;;;3.70;1.00;;;19.80;99.90;;;;;;20754970;28;20084;-86
2021/07/31 17:27:43;;;;;;;2.30;1.05;;;19.80;99.90;;;;;;20710115;28;20054;-85
2021/07/31 17:37:44;;;;;;;3.60;1.90;;;20.00;99.90;;;;;;20720850;28;20110;-85
2021/07/31 17:47:45;;;;;;;3.20;1.95;;;19.60;99.90;;;;;;20768757;28;20042;-86
2021/07/31 18:01:55;;;;;;;1.95;0.85;;;19.20;99.90;;;;;;20953306;27;1955464;-83
2021/07/31 18:12:04;;;;;;;4.32;0.93;;;19.10;99.90;;;;;;20947571;28;20392;-83
2021/07/31 18:22:05;;;;;;;1.92;0.77;;;19.10;99.90;;;;;;20977128;27;20046;-84
2021/07/31 18:32:07;;;;;;;2.17;1.08;;;19.00;99.90;;;;;;20886131;28;20036;-83
2021/07/31 18:42:09;;;;;;;3.03;0.93;;;18.80;99.90;;;;;;20945031;28;20167;-84
2021/07/31 18:52:10;;;;;;;2.38;0.90;;;18.70;99.90;;;;;;20901201;28;20049;-84
2021/07/31 19:02:11;;;;;;;1.85;0.95;;;18.50;99.90;;;;;;20854915;28;20040;-83
2021/07/31 19:12:12;;;;;;;3.05;1.00;;;18.50;99.90;;;;;;20820717;28;20111;-83
2021/07/31 19:22:13;;;;;;;2.83;1.00;;;18.20;99.90;;;;;;20780724;28;20045;-83
2021/07/31 19:32:15;;;;;;;2.35;1.00;;;18.00;99.90;;;;;;20833666;28;20048;-83
2021/07/31 19:42:16;;;;;;;2.83;1.20;;;17.70;99.90;;;;;;20800716;28;20049;-84
2021/07/31 19:52:17;;;;;;;2.97;1.08;;;17.60;99.90;;;;;;20827175;28;20139;-83
2021/07/31 20:02:18;;;;;;;2.13;0.98;;;17.40;99.90;;;;;;20803197;28;20038;-81
2021/07/31 20:12:19;;;;;;;1.90;1.05;;;17.20;99.90;;;;;;20810034;28;20087;-81
2021/07/31 20:22:20;;;;;;;3.17;1.40;;;17.00;99.90;;;;;;20818228;28;20055;-82
2021/07/31 20:32:21;;;;;;;3.15;1.55;;;16.80;99.90;;;;;;20844346;28;20053;-82
2021/07/31 20:42:22;;;;;;;4.40;1.65;;;16.50;99.90;;;;;;20835968;28;20471;-82
2021/07/31 20:52:24;;;;;;;3.83;1.15;;;16.50;99.90;;;;;;20768187;28;20055;-84
2021/07/31 21:02:25;;;;;;;2.83;1.35;;;16.30;99.90;;;;;;20854881;28;20125;-83
2021/07/31 21:12:26;;;;;;;3.85;1.83;;;16.20;99.90;;;;;;20823470;28;20041;-82
2021/07/31 21:22:27;;;;;;;3.42;1.40;;;16.10;99.90;;;;;;20804309;28;20069;-83
2021/07/31 21:32:28;;;;;;;3.95;1.80;;;16.10;99.90;;;;;;20820238;28;20049;-83
2021/07/31 21:42:32;;;;;;;3.70;1.58;;;16.00;99.90;;;;;;20853023;28;20101;-83
2021/07/31 21:52:34;;;;;;;7.38;2.45;;;15.90;99.90;;;;;;20809764;28;20072;-83
2021/07/31 22:02:35;;;;;;;5.20;2.58;;;15.80;99.90;;;;;;20811096;28;20167;-83
2021/07/31 22:12:36;;;;;;;6.75;2.75;;;15.70;99.90;;;;;;20840633;28;20094;-83
2021/07/31 22:22:37;;;;;;;3.42;1.88;;;15.70;99.90;;;;;;20822671;28;20045;-83
2021/07/31 22:32:39;;;;;;;5.45;2.83;;;15.60;99.90;;;;;;20819410;28;20160;-83
2021/07/31 22:42:40;;;;;;;5.95;2.85;;;15.60;99.90;;;;;;20841763;28;20040;-83
2021/07/31 22:52:42;;;;;;;9.20;3.22;;;15.60;99.90;;;;;;20835545;28;20102;-83
2021/07/31 23:02:43;;;;;;;6.00;2.58;;;15.60;99.90;;;;;;20749593;28;20045;-83
2021/07/31 23:12:45;;;;;;;5.93;2.83;;;15.60;99.90;;;;;;20810624;28;20053;-82
2021/07/31 23:22:46;;;;;;;8.25;2.53;;;15.50;99.90;;;;;;20817172;28;20041;-82
2021/07/31 23:32:47;;;;;;;7.13;2.63;;;15.60;99.90;;;;;;20832308;27;20053;-82
2021/07/31 23:42:48;;;;;;;6.88;2.10;;;15.70;99.90;;;;;;20816252;28;20105;-82
2021/07/31 23:52:49;;;;;;;5.13;2.70;;;15.70;99.90;;;;;;20834743;28;20077;-82
